Time;durP1;ratioP1;P1;durP2;ratioP2;P2;SDS_P1;SDS_P2;PMS_P1;PMS_P2;Temp;Humidity;BMP_temperature;BMP_pressure;BME280_temperature;BME280_humidity;BME280_pressure;Samples;Min_cycle;Max_cycle;Signal;HPM_P1;HPM_P2
2023/08/06 00:02:10;;;;;;;2.53;2.30;;;;;;;16.03;100.00;99436.19;5061845;28;20214;-76
2023/08/06 00:04:36;;;;;;;3.43;2.47;;;;;;;15.99;100.00;99427.66;5064535;28;21260;-76
2023/08/06 00:07:01;;;;;;;2.60;2.40;;;;;;;15.95;100.00;99430.50;5061993;28;20288;-77
2023/08/06 00:09:27;;;;;;;2.60;2.17;;;;;;;15.92;100.00;99428.00;5058819;28;20183;-77
2023/08/06 00:11:52;;;;;;;2.83;2.63;;;;;;;15.89;100.00;99430.75;5059841;28;20193;-76
2023/08/06 00:14:20;;;;;;;2.63;2.43;;;;;;;15.90;100.00;99424.63;5059019;28;20207;-77
2023/08/06 00:16:46;;;;;;;2.70;2.50;;;;;;;15.92;100.00;99418.41;5062534;28;20295;-76
2023/08/06 00:19:11;;;;;;;2.27;2.10;;;;;;;15.95;100.00;99417.44;5063577;28;20266;-78
2023/08/06 00:21:36;;;;;;;2.33;2.13;;;;;;;15.95;100.00;99414.84;5063894;28;20205;-76
2023/08/06 00:24:02;;;;;;;2.50;2.30;;;;;;;15.93;100.00;99419.28;5061396;28;20697;-78
2023/08/06 00:26:27;;;;;;;2.67;2.47;;;;;;;15.89;100.00;99408.09;5063278;28;20190;-76
2023/08/06 00:28:52;;;;;;;2.27;2.13;;;;;;;15.84;100.00;99402.22;5063569;28;20191;-76
2023/08/06 00:31:21;;;;;;;2.80;2.60;;;;;;;15.80;100.00;99395.44;5059496;28;20185;-77
2023/08/06 00:33:46;;;;;;;2.30;2.20;;;;;;;15.75;100.00;99406.09;5063389;28;20526;-75
2023/08/06 00:36:11;;;;;;;2.43;2.23;;;;;;;15.73;100.00;99399.25;5063991;28;20648;-76
2023/08/06 00:38:36;;;;;;;2.03;1.93;;;;;;;15.72;100.00;99401.00;5061668;28;20239;-77
2023/08/06 00:41:05;;;;;;;2.50;2.30;;;;;;;15.75;100.00;99405.22;5056020;28;20795;-79
2023/08/06 00:43:30;;;;;;;2.40;2.20;;;;;;;15.73;100.00;99394.88;5060647;28;20206;-78
2023/08/06 00:45:58;;;;;;;2.30;2.10;;;;;;;15.72;100.00;99400.19;5061536;28;20194;-76
2023/08/06 00:48:26;;;;;;;2.40;2.20;;;;;;;15.67;100.00;99401.22;5064509;28;20234;-76
2023/08/06 00:50:52;;;;;;;2.77;2.33;;;;;;;15.67;100.00;99393.41;5058777;28;20576;-76
2023/08/06 00:53:17;;;;;;;2.50;2.30;;;;;;;15.66;100.00;99396.91;5061254;28;20185;-76
2023/08/06 00:55:44;;;;;;;2.70;2.50;;;;;;;15.65;100.00;99397.81;5058676;28;20220;-77
2023/08/06 00:58:10;;;;;;;2.57;2.37;;;;;;;15.65;100.00;99397.00;5063932;28;20912;-76
2023/08/06 01:00:35;;;;;;;3.07;2.57;;;;;;;15.64;100.00;99390.09;5061592;28;20190;-76
2023/08/06 01:03:01;;;;;;;2.67;2.47;;;;;;;15.64;100.00;99384.88;5062184;28;20218;-77
2023/08/06 01:05:26;;;;;;;3.20;2.10;;;;;;;15.64;100.00;99383.09;5056638;28;22213;-79
2023/08/06 01:08:03;;;;;;;2.50;2.30;;;;;;;15.67;100.00;99377.75;5058855;28;20187;-77
2023/08/06 01:10:47;;;;;;;2.83;2.20;;;;;;;15.69;100.00;99377.66;5063938;28;20216;-76
2023/08/06 01:13:46;;;;;;;2.50;2.30;;;;;;;15.72;100.00;99372.31;5060426;28;20175;-76
2023/08/06 01:16:16;;;;;;;2.00;1.80;;;;;;;15.76;100.00;99371.28;5049924;28;20284;-77
2023/08/06 01:18:49;;;;;;;2.30;2.10;;;;;;;15.77;100.00;99369.50;5060952;28;20185;-78
2023/08/06 01:21:18;;;;;;;2.37;2.17;;;;;;;15.78;100.00;99363.38;5057276;28;20195;-76
2023/08/06 01:23:47;;;;;;;2.77;2.20;;;;;;;15.82;100.00;99359.72;5056777;28;20567;-76
2023/08/06 01:26:35;;;;;;;2.50;2.30;;;;;;;15.85;100.00;99360.44;5058461;28;20182;-76
2023/08/06 01:29:25;;;;;;;2.83;2.10;;;;;;;15.86;100.00;99361.31;5060220;28;20188;-79
2023/08/06 01:31:52;;;;;;;2.57;2.27;;;;;;;15.88;100.00;99359.47;5074829;28;20190;-78
2023/08/06 01:34:24;;;;;;;2.20;2.00;;;;;;;15.90;100.00;99346.34;5063256;28;20590;-77
2023/08/06 01:36:50;;;;;;;3.27;2.30;;;;;;;15.92;100.00;99339.28;5063369;28;20189;-76
2023/08/06 01:39:15;;;;;;;3.47;2.00;;;;;;;15.93;100.00;99343.59;5063029;28;20185;-77
2023/08/06 01:41:41;;;;;;;2.57;2.10;;;;;;;15.94;100.00;99345.28;5060558;28;20580;-78
2023/08/06 01:44:09;;;;;;;3.03;2.30;;;;;;;16.02;100.00;99342.31;5059565;28;20207;-77
2023/08/06 01:46:34;;;;;;;2.47;2.20;;;;;;;16.01;100.00;99338.84;5062443;28;20196;-78
2023/08/06 01:49:00;;;;;;;3.23;2.10;;;;;;;16.04;100.00;99338.72;5059987;28;20178;-76
2023/08/06 01:51:25;;;;;;;2.30;2.10;;;;;;;16.07;100.00;99341.19;5062027;28;20472;-76
2023/08/06 01:53:50;;;;;;;3.27;2.60;;;;;;;16.13;100.00;99338.28;5061893;28;20724;-77
2023/08/06 01:56:16;;;;;;;3.40;2.73;;;;;;;16.16;100.00;99342.53;5062980;28;20194;-76
2023/08/06 01:58:41;;;;;;;3.77;2.40;;;;;;;16.20;100.00;99340.59;5071671;28;20230;-78
2023/08/06 02:01:06;;;;;;;2.87;2.53;;;;;;;16.26;100.00;99349.00;5063533;28;20192;-77
2023/08/06 02:03:32;;;;;;;2.50;2.30;;;;;;;16.26;100.00;99342.94;5061954;28;20208;-78
2023/08/06 02:05:57;;;;;;;2.33;2.13;;;;;;;16.28;100.00;99341.06;5061112;28;20197;-77
2023/08/06 02:08:22;;;;;;;3.37;2.40;;;;;;;16.27;100.00;99344.59;5055257;28;20267;-76
2023/08/06 02:10:47;;;;;;;3.40;2.63;;;;;;;16.25;100.00;99336.84;5062283;28;20189;-77
2023/08/06 02:13:13;;;;;;;2.70;2.47;;;;;;;16.24;100.00;99336.94;5059873;28;20200;-76
2023/08/06 02:15:47;;;;;;;4.20;2.53;;;;;;;16.20;100.00;99333.59;5059464;28;20201;-77
2023/08/06 02:18:14;;;;;;;3.13;2.37;;;;;;;16.19;100.00;99342.34;5061278;28;20177;-78
2023/08/06 02:20:43;;;;;;;5.77;2.47;;;;;;;16.18;100.00;99334.59;5057030;28;20412;-76
2023/08/06 02:23:08;;;;;;;3.03;2.67;;;;;;;16.15;100.00;99338.22;5062583;28;20220;-76
2023/08/06 02:25:37;;;;;;;3.50;2.23;;;;;;;16.17;100.00;99345.97;5062896;28;20198;-77
2023/08/06 02:28:02;;;;;;;2.93;1.90;;;;;;;16.19;100.00;99349.34;5056979;28;20220;-76
2023/08/06 02:30:27;;;;;;;3.60;2.67;;;;;;;16.16;100.00;99358.19;5059166;28;20221;-76
2023/08/06 02:32:53;;;;;;;3.03;2.47;;;;;;;16.11;100.00;99347.94;5061737;28;20177;-77
2023/08/06 02:35:21;;;;;;;4.43;2.60;;;;;;;16.10;100.00;99356.72;5063651;28;20567;-77
2023/08/06 02:37:46;;;;;;;2.30;2.10;;;;;;;16.11;100.00;99352.31;5061127;28;20880;-77
2023/08/06 02:40:14;;;;;;;2.40;2.20;;;;;;;16.12;100.00;99354.84;5063972;28;20231;-78
2023/08/06 02:42:39;;;;;;;2.87;2.13;;;;;;;16.17;100.00;99361.63;5062306;28;20202;-78
2023/08/06 02:45:05;;;;;;;3.10;2.30;;;;;;;16.14;100.00;99350.41;5057527;28;20222;-77
2023/08/06 02:47:33;;;;;;;2.90;2.40;;;;;;;16.10;100.00;99359.31;5060996;28;20193;-76
2023/08/06 02:49:59;;;;;;;3.37;2.50;;;;;;;16.06;100.00;99362.97;5060318;28;20621;-76
2023/08/06 02:52:26;;;;;;;2.87;2.33;;;;;;;15.97;100.00;99361.66;5060166;28;20477;-78
2023/08/06 02:54:52;;;;;;;2.30;2.10;;;;;;;15.91;100.00;99374.13;5061793;28;20236;-77
2023/08/06 02:57:17;;;;;;;5.87;2.47;;;;;;;15.87;100.00;99375.19;5063911;28;20190;-78
2023/08/06 02:59:42;;;;;;;4.23;2.60;;;;;;;15.84;100.00;99383.97;5063795;28;20296;-78
2023/08/06 03:02:08;;;;;;;2.80;2.33;;;;;;;15.80;100.00;99371.97;5063362;28;20648;-78
2023/08/06 03:04:33;;;;;;;3.50;2.20;;;;;;;15.76;100.00;99371.28;5061344;28;20210;-77
2023/08/06 03:06:58;;;;;;;3.80;2.50;;;;;;;15.71;100.00;99375.84;5064833;28;20200;-77
2023/08/06 03:09:23;;;;;;;4.43;2.23;;;;;;;15.67;100.00;99371.66;5062691;28;20239;-77
2023/08/06 03:11:49;;;;;;;4.23;2.50;;;;;;;15.58;100.00;99369.47;5064278;28;20709;-77
2023/08/06 03:14:14;;;;;;;2.73;2.10;;;;;;;15.53;100.00;99373.13;5063555;28;20239;-77
2023/08/06 03:16:39;;;;;;;3.13;1.90;;;;;;;15.47;100.00;99367.34;5062225;28;20233;-80
2023/08/06 03:19:07;;;;;;;2.90;1.67;;;;;;;15.43;100.00;99365.81;5060424;28;20186;-79
2023/08/06 03:21:32;;;;;;;2.13;1.60;;;;;;;15.34;100.00;99360.06;5061666;28;20257;-78
2023/08/06 03:23:58;;;;;;;5.20;1.90;;;;;;;15.33;100.00;99358.38;5062636;28;20674;-78
2023/08/06 03:26:23;;;;;;;2.77;1.70;;;;;;;15.32;100.00;99358.44;5061043;28;20198;-77
2023/08/06 03:28:48;;;;;;;4.30;1.73;;;;;;;15.32;100.00;99359.28;5078037;28;20190;-78
2023/08/06 03:31:14;;;;;;;3.67;1.60;;;;;;;15.33;100.00;99368.78;5083742;28;20272;-77
2023/08/06 03:33:42;;;;;;;1.93;1.43;;;;;;;15.30;100.00;99366.31;5064510;28;20201;-77
2023/08/06 03:36:07;;;;;;;2.60;1.60;;;;;;;15.28;100.00;99365.53;5064011;28;20190;-78
2023/08/06 03:38:35;;;;;;;2.97;1.70;;;;;;;15.29;100.00;99367.22;5062010;28;20203;-77
2023/08/06 03:41:00;;;;;;;3.53;1.90;;;;;;;15.27;100.00;99363.88;5060536;28;20194;-77
2023/08/06 03:43:26;;;;;;;1.90;1.40;;;;;;;15.27;100.00;99360.41;5059357;28;20219;-78
2023/08/06 03:45:51;;;;;;;2.37;1.40;;;;;;;15.23;100.00;99359.69;5054220;28;20275;-78
2023/08/06 03:48:19;;;;;;;2.50;1.50;;;;;;;15.24;100.00;99358.78;5060308;28;20186;-78
2023/08/06 03:50:48;;;;;;;2.87;1.63;;;;;;;15.23;100.00;99359.69;5057352;28;20185;-77
2023/08/06 03:53:16;;;;;;;1.67;1.40;;;;;;;15.23;100.00;99350.09;5057070;28;20173;-77
2023/08/06 03:55:41;;;;;;;2.50;1.33;;;;;;;15.21;100.00;99357.13;5058871;28;20188;-78
2023/08/06 03:58:07;;;;;;;2.37;1.30;;;;;;;15.19;100.00;99353.78;5060330;28;20198;-78
2023/08/06 04:00:32;;;;;;;2.60;1.20;;;;;;;15.20;100.00;99347.63;5056808;28;20200;-78
2023/08/06 04:02:57;;;;;;;2.57;1.23;;;;;;;15.21;100.00;99358.91;5052557;28;20310;-77
2023/08/06 04:05:23;;;;;;;2.67;1.40;;;;;;;15.23;100.00;99344.88;5053524;28;20214;-77
2023/08/06 04:07:48;;;;;;;2.00;1.23;;;;;;;15.21;100.00;99351.91;5045457;28;20229;-77
2023/08/06 04:10:13;;;;;;;2.43;1.20;;;;;;;15.24;100.00;99350.97;5052988;28;20186;-77
2023/08/06 04:12:39;;;;;;;2.17;1.00;;;;;;;15.21;100.00;99351.91;5049133;28;20185;-77
2023/08/06 04:15:07;;;;;;;1.77;1.20;;;;;;;15.16;100.00;99351.28;5052391;28;20220;-76
2023/08/06 04:17:33;;;;;;;2.33;1.57;;;;;;;15.16;100.00;99356.50;5051455;28;20917;-76
2023/08/06 04:19:58;;;;;;;1.80;1.17;;;;;;;15.15;100.00;99360.00;5055580;28;20182;-77
2023/08/06 04:22:27;;;;;;;1.90;1.20;;;;;;;15.16;100.00;99355.63;5053163;28;20773;-78
2023/08/06 04:24:52;;;;;;;2.60;1.37;;;;;;;15.15;100.00;99360.00;5054254;28;20259;-77
2023/08/06 04:27:19;;;;;;;3.20;1.77;;;;;;;15.17;100.00;99359.94;5055464;28;20193;-76
2023/08/06 04:29:47;;;;;;;2.57;1.67;;;;;;;15.15;100.00;99361.75;5063226;28;20179;-76
2023/08/06 04:32:12;;;;;;;2.07;1.47;;;;;;;15.16;100.00;99361.72;5062023;28;20190;-78
2023/08/06 04:34:38;;;;;;;2.50;1.67;;;;;;;15.19;100.00;99360.72;5060053;28;20403;-77
2023/08/06 04:37:04;;;;;;;3.83;1.97;;;;;;;15.19;100.00;99351.16;5060826;28;20183;-76
2023/08/06 04:39:30;;;;;;;3.97;1.87;;;;;;;15.22;100.00;99355.38;5056472;28;20189;-77
2023/08/06 04:41:58;;;;;;;2.77;1.83;;;;;;;15.19;100.00;99347.69;5054233;28;20253;-76
2023/08/06 04:44:24;;;;;;;3.57;2.03;;;;;;;15.19;100.00;99353.78;5056860;28;20201;-77
2023/08/06 04:46:50;;;;;;;3.50;2.20;;;;;;;15.22;100.00;99352.78;5065039;28;20186;-78
2023/08/06 04:49:15;;;;;;;3.43;2.10;;;;;;;15.23;100.00;99351.88;5062295;28;20186;-78
2023/08/06 04:51:41;;;;;;;2.77;2.00;;;;;;;15.23;100.00;99346.66;5064912;28;20181;-77
2023/08/06 04:54:06;;;;;;;2.93;2.23;;;;;;;15.21;100.00;99351.91;5064944;28;20280;-77
2023/08/06 04:56:32;;;;;;;3.20;2.10;;;;;;;15.25;100.00;99355.25;5063748;28;20197;-77
2023/08/06 04:58:58;;;;;;;3.23;2.30;;;;;;;15.30;100.00;99363.72;5060858;28;20828;-78
2023/08/06 05:01:24;;;;;;;3.10;1.80;;;;;;;15.29;100.00;99359.41;5064951;28;20802;-78
2023/08/06 05:03:49;;;;;;;2.87;2.07;;;;;;;15.29;100.00;99364.63;5058089;28;20210;-78
2023/08/06 05:06:19;;;;;;;3.60;1.87;;;;;;;15.31;100.00;99364.56;5057207;28;20190;-77
2023/08/06 05:08:45;;;;;;;5.47;2.03;;;;;;;15.29;100.00;99356.81;5063541;28;20174;-77
2023/08/06 05:11:10;;;;;;;3.80;2.17;;;;;;;15.28;100.00;99362.91;5075384;28;20260;-78
2023/08/06 05:13:38;;;;;;;2.93;1.80;;;;;;;15.23;100.00;99360.53;5058140;28;20205;-78
2023/08/06 05:16:04;;;;;;;4.43;2.00;;;;;;;15.24;100.00;99361.38;5061307;28;20182;-76
2023/08/06 05:18:30;;;;;;;4.97;2.30;;;;;;;15.22;100.00;99361.44;5056793;28;20205;-78
2023/08/06 05:20:58;;;;;;;4.83;2.03;;;;;;;15.23;100.00;99364.91;5059683;28;20194;-78
2023/08/06 05:23:23;;;;;;;2.67;1.90;;;;;;;15.22;100.00;99368.41;5081924;28;20221;-78
2023/08/06 05:25:49;;;;;;;2.63;1.70;;;;;;;15.21;100.00;99367.56;5058765;28;20188;-79
2023/08/06 05:28:14;;;;;;;3.70;1.73;;;;;;;15.20;100.00;99370.25;5070513;28;20190;-77
2023/08/06 05:30:41;;;;;;;2.30;1.70;;;;;;;15.23;100.00;99370.13;5079465;28;20189;-76
2023/08/06 05:33:06;;;;;;;3.47;1.67;;;;;;;15.21;100.00;99357.13;5062576;28;20319;-75
2023/08/06 05:35:34;;;;;;;2.83;2.03;;;;;;;15.20;100.00;99365.84;5058975;28;20235;-76
2023/08/06 05:37:59;;;;;;;3.63;1.70;;;;;;;15.19;100.00;99371.16;5054198;28;20180;-76
2023/08/06 05:40:25;;;;;;;2.10;1.53;;;;;;;15.16;100.00;99371.28;5055341;28;20200;-76
2023/08/06 05:42:51;;;;;;;2.90;1.67;;;;;;;15.13;100.00;99369.66;5055807;28;20559;-76
2023/08/06 05:45:19;;;;;;;2.40;1.33;;;;;;;15.12;100.00;99383.59;5054259;28;20216;-75
2023/08/06 05:47:45;;;;;;;1.73;1.17;;;;;;;15.09;100.00;99373.28;5055557;28;20211;-76
2023/08/06 05:50:11;;;;;;;2.23;1.20;;;;;;;15.08;100.00;99385.50;5065883;28;20182;-76
2023/08/06 05:52:36;;;;;;;1.37;1.20;;;;;;;15.05;100.00;99383.00;5056155;28;20195;-76
2023/08/06 05:55:01;;;;;;;2.33;1.30;;;;;;;15.04;100.00;99383.09;5061849;28;20204;-76
2023/08/06 05:57:27;;;;;;;2.13;1.13;;;;;;;15.02;100.00;99372.72;5060605;28;20195;-76
2023/08/06 05:59:52;;;;;;;1.90;0.80;;;;;;;15.01;100.00;99386.66;5058758;28;20196;-77
2023/08/06 06:02:18;;;;;;;1.10;0.70;;;;;;;15.03;100.00;99382.22;5055800;28;20210;-76
2023/08/06 06:04:44;;;;;;;1.80;0.70;;;;;;;15.05;100.00;99369.16;5055229;28;20232;-77
2023/08/06 06:07:09;;;;;;;1.03;0.50;;;;;;;15.05;100.00;99385.63;5058866;28;20209;-78
2023/08/06 06:09:34;;;;;;;1.87;0.87;;;;;;;15.09;100.00;99388.94;5060795;28;20477;-77
2023/08/06 06:12:02;;;;;;;1.97;1.20;;;;;;;15.08;100.00;99382.88;5056606;28;20243;-78
2023/08/06 06:14:31;;;;;;;1.77;0.50;;;;;;;15.06;100.00;99386.44;5060864;28;20205;-77
2023/08/06 06:16:56;;;;;;;1.07;0.53;;;;;;;15.05;100.00;99390.81;5053810;28;20197;-77
2023/08/06 06:19:21;;;;;;;1.17;0.90;;;;;;;15.10;100.00;99401.06;5061778;28;20658;-78
2023/08/06 06:21:47;;;;;;;0.67;0.60;;;;;;;15.06;100.00;99396.88;5066565;28;20287;-77
2023/08/06 06:24:12;;;;;;;3.23;1.10;;;;;;;15.05;100.00;99392.59;5061801;28;20285;-77
2023/08/06 06:26:38;;;;;;;1.70;1.20;;;;;;;15.05;100.00;99403.84;5056422;28;20236;-79
2023/08/06 06:29:03;;;;;;;1.50;0.87;;;;;;;15.09;100.00;99402.81;5062526;28;20197;-77
2023/08/06 06:31:29;;;;;;;2.77;1.00;;;;;;;15.13;100.00;99400.06;5066198;28;20185;-77
2023/08/06 06:33:54;;;;;;;2.27;0.90;;;;;;;15.14;100.00;99406.97;5072113;28;20262;-77
2023/08/06 06:36:20;;;;;;;1.13;0.70;;;;;;;15.15;100.00;99409.53;5056284;28;20188;-77
2023/08/06 06:38:45;;;;;;;1.20;0.80;;;;;;;15.16;100.00;99412.97;5061945;28;20189;-78
2023/08/06 06:41:11;;;;;;;2.30;1.07;;;;;;;15.20;100.00;99411.94;5058485;28;20211;-76
2023/08/06 06:43:38;;;;;;;1.63;0.60;;;;;;;15.25;100.00;99410.00;5059414;28;20299;-79
2023/08/06 06:46:03;;;;;;;1.13;0.87;;;;;;;15.37;100.00;99416.44;5056949;28;20414;-77
2023/08/06 06:48:32;;;;;;;1.83;0.93;;;;;;;15.41;100.00;99406.72;5061158;28;20192;-77
2023/08/06 06:50:57;;;;;;;1.87;0.90;;;;;;;15.37;100.00;99400.78;5054434;28;20190;-77
2023/08/06 06:53:27;;;;;;;1.43;0.83;;;;;;;15.37;100.00;99409.47;5060104;28;20189;-79
2023/08/06 06:55:53;;;;;;;2.07;1.30;;;;;;;15.33;100.00;99402.69;5059602;28;21124;-77
2023/08/06 06:58:19;;;;;;;1.70;1.03;;;;;;;15.36;100.00;99405.16;5056854;28;20661;-77
2023/08/06 07:00:45;;;;;;;2.30;1.00;;;;;;;15.37;100.00;99400.78;5050265;28;20218;-77
2023/08/06 07:03:18;;;;;;;2.70;1.03;;;;;;;15.42;100.00;99409.25;5052865;28;20202;-78
2023/08/06 07:05:44;;;;;;;2.47;1.20;;;;;;;15.46;100.00;99404.75;5048544;28;20202;-76
2023/08/06 07:08:14;;;;;;;1.67;1.13;;;;;;;15.57;100.00;99415.59;5050962;28;20186;-76
2023/08/06 07:10:43;;;;;;;2.53;2.17;;;;;;;15.70;100.00;99421.97;5055800;28;20193;-77
2023/08/06 07:13:09;;;;;;;3.47;1.87;;;;;;;15.74;100.00;99416.56;5054513;28;20219;-77
2023/08/06 07:15:34;;;;;;;3.97;3.47;;;;;;;15.67;100.00;99416.88;5053337;28;20209;-76
2023/08/06 07:18:01;;;;;;;3.83;3.43;;;;;;;15.83;100.00;99426.63;5057959;28;20186;-76
2023/08/06 07:20:31;;;;;;;5.80;4.17;;;;;;;15.85;100.00;99406.56;5052932;28;20189;-76
2023/08/06 07:22:57;;;;;;;7.63;6.93;;;;;;;15.89;100.00;99420.31;5056206;28;20311;-76
2023/08/06 07:25:25;;;;;;;9.80;8.90;;;;;;;15.89;100.00;99425.53;5055657;28;20209;-76
2023/08/06 07:27:50;;;;;;;11.37;10.10;;;;;;;15.78;100.00;99415.53;5062354;28;20186;-75
2023/08/06 07:30:15;;;;;;;6.90;6.00;;;;;;;15.83;100.00;99422.25;5070365;28;20196;-76
2023/08/06 07:32:41;;;;;;;19.53;15.07;;;;;;;15.67;100.00;99422.09;5057211;28;20190;-76
2023/08/06 07:35:07;;;;;;;9.20;7.57;;;;;;;15.60;100.00;99423.25;5054736;28;20220;-77
2023/08/06 07:37:33;;;;;;;5.03;4.53;;;;;;;15.53;100.00;99435.72;5051773;28;20239;-77
2023/08/06 07:39:58;;;;;;;3.90;3.13;;;;;;;15.51;100.00;99434.09;5053042;28;20269;-77
2023/08/06 07:42:24;;;;;;;3.70;2.90;;;;;;;15.56;100.00;99439.97;5051413;28;20635;-76
2023/08/06 07:44:56;;;;;;;5.17;4.77;;;;;;;15.68;100.00;99433.34;5051884;28;20209;-77
2023/08/06 07:47:22;;;;;;;3.20;2.90;;;;;;;15.68;100.00;99438.56;5054102;28;20198;-77
2023/08/06 07:49:48;;;;;;;2.43;1.20;;;;;;;15.68;100.00;99430.75;5053152;28;20240;-76
2023/08/06 07:52:19;;;;;;;2.67;1.80;;;;;;;15.53;100.00;99438.31;5054553;28;20243;-78
2023/08/06 07:54:44;;;;;;;1.93;1.30;;;;;;;15.55;100.00;99430.44;5055795;28;20255;-77
2023/08/06 07:57:10;;;;;;;3.43;3.07;;;;;;;15.59;100.00;99431.16;5059461;28;21041;-77
2023/08/06 07:59:35;;;;;;;6.20;4.67;;;;;;;15.62;100.00;99434.47;5051082;28;20677;-77
2023/08/06 08:02:01;;;;;;;1.30;0.80;;;;;;;15.56;100.00;99434.75;5052710;28;20271;-77
2023/08/06 08:04:26;;;;;;;1.90;0.83;;;;;;;15.57;100.00;99446.88;5062655;28;20240;-77
2023/08/06 08:06:51;;;;;;;0.87;0.70;;;;;;;15.50;100.00;99437.63;5055504;28;20736;-77
2023/08/06 08:09:18;;;;;;;2.33;1.73;;;;;;;15.51;100.00;99439.31;5061983;28;20213;-77
2023/08/06 08:11:43;;;;;;;1.13;0.80;;;;;;;15.47;100.00;99448.16;5058686;28;20185;-77
2023/08/06 08:14:08;;;;;;;1.77;0.77;;;;;;;15.42;100.00;99443.16;5055434;28;20224;-77
2023/08/06 08:16:34;;;;;;;1.47;0.70;;;;;;;15.46;100.00;99444.72;5054924;28;20186;-77
2023/08/06 08:19:03;;;;;;;1.30;0.80;;;;;;;15.55;100.00;99443.50;5055654;28;20188;-77
2023/08/06 08:21:29;;;;;;;1.10;0.63;;;;;;;15.52;100.00;99452.28;5053471;28;20197;-76
2023/08/06 08:23:54;;;;;;;1.07;0.80;;;;;;;15.59;100.00;99446.81;5059007;28;20209;-77
2023/08/06 08:26:19;;;;;;;1.53;1.00;;;;;;;15.59;100.00;99452.84;5050377;28;20190;-77
2023/08/06 08:28:45;;;;;;;2.67;1.00;;;;;;;15.59;100.00;99445.03;5058209;28;20197;-77
2023/08/06 08:31:11;;;;;;;1.90;0.93;;;;;;;15.55;100.00;99451.31;5055833;28;20203;-78
2023/08/06 08:33:40;;;;;;;1.80;0.90;;;;;;;15.54;100.00;99458.28;5055859;28;20244;-78
2023/08/06 08:36:05;;;;;;;1.77;1.10;;;;;;;15.60;100.00;99454.56;5056573;28;20186;-77
2023/08/06 08:38:30;;;;;;;1.10;0.70;;;;;;;15.64;100.00;99456.13;5056245;28;20193;-76
2023/08/06 08:40:56;;;;;;;1.93;1.10;;;;;;;15.71;100.00;99456.69;5054759;28;20661;-78
2023/08/06 08:43:22;;;;;;;1.93;0.70;;;;;;;15.73;100.00;99457.47;5053452;28;20209;-76
2023/08/06 08:45:50;;;;;;;1.00;0.70;;;;;;;15.80;100.00;99461.53;5050316;28;20614;-78
2023/08/06 08:48:19;;;;;;;1.57;0.80;;;;;;;15.79;100.00;99454.63;5056283;28;20982;-77
2023/08/06 08:50:49;;;;;;;2.17;1.00;;;;;;;15.76;100.00;99459.97;5054817;28;20673;-77
2023/08/06 08:53:16;;;;;;;1.03;0.77;;;;;;;15.78;100.00;99460.75;5057364;28;20306;-77
2023/08/06 08:55:47;;;;;;;1.67;1.10;;;;;;;15.74;100.00;99460.91;5052173;28;20182;-77
2023/08/06 08:58:13;;;;;;;1.83;0.97;;;;;;;15.71;100.00;99467.13;5057489;28;20178;-76
2023/08/06 09:00:42;;;;;;;1.53;0.80;;;;;;;15.69;100.00;99477.66;5065001;28;20236;-77
2023/08/06 09:03:08;;;;;;;1.63;0.87;;;;;;;15.76;100.00;99465.19;5067002;28;20202;-77
2023/08/06 09:05:43;;;;;;;1.80;1.00;;;;;;;15.85;100.00;99467.41;5053998;28;20255;-78
2023/08/06 09:08:11;;;;;;;1.77;0.80;;;;;;;15.87;100.00;99472.56;5054674;28;20178;-77
2023/08/06 09:10:38;;;;;;;2.27;0.80;;;;;;;15.97;100.00;99475.59;5058790;28;20182;-77
2023/08/06 09:13:04;;;;;;;1.30;0.70;;;;;;;15.95;100.00;99475.69;5056840;28;20186;-77
2023/08/06 09:15:30;;;;;;;2.10;0.83;;;;;;;15.95;100.00;99480.06;5057911;28;20227;-77
2023/08/06 09:17:55;;;;;;;0.93;0.60;;;;;;;15.79;100.00;99478.09;5060645;28;20268;-77
2023/08/06 09:20:21;;;;;;;1.57;0.70;;;;;;;15.70;100.00;99474.13;5059747;28;20182;-77
2023/08/06 09:22:48;;;;;;;1.77;1.00;;;;;;;15.77;100.00;99495.56;5054798;28;20248;-77
2023/08/06 09:25:25;;;;;;;2.90;0.80;;;;;;;15.94;100.00;99497.47;5055490;28;20259;-76
2023/08/06 09:27:51;;;;;;;0.40;0.40;;;;;;;16.11;100.00;99504.53;5060035;28;20188;-76
2023/08/06 09:30:37;;;;;;;1.37;0.90;;;;;;;16.37;100.00;99504.28;5064190;28;20186;-77
2023/08/06 09:33:03;;;;;;;0.70;0.70;;;;;;;16.46;100.00;99512.56;5061264;28;20676;-78
2023/08/06 09:35:32;;;;;;;1.33;0.60;;;;;;;16.47;100.00;99518.63;5052928;28;20205;-76
2023/08/06 09:38:10;;;;;;;1.10;0.60;;;;;;;16.46;100.00;99520.38;5056781;28;20195;-77
2023/08/06 09:40:36;;;;;;;1.20;0.70;;;;;;;16.33;100.00;99521.03;5054431;28;20742;-77
2023/08/06 09:43:02;;;;;;;1.40;0.60;;;;;;;16.33;100.00;99516.66;5053403;28;20218;-76
2023/08/06 09:45:33;;;;;;;1.23;0.50;;;;;;;16.21;100.00;99531.09;5054175;28;20209;-77
2023/08/06 09:48:09;;;;;;;1.70;0.50;;;;;;;16.26;100.00;99523.06;5053503;28;20570;-78
2023/08/06 09:50:37;;;;;;;1.00;0.50;;;;;;;16.37;100.00;99527.78;5058212;28;21028;-77
2023/08/06 09:53:04;;;;;;;1.13;0.50;;;;;;;16.31;100.00;99536.75;5056525;28;20566;-77
2023/08/06 09:55:30;;;;;;;1.20;0.97;;;;;;;16.36;100.00;99532.19;5055619;28;20739;-77
2023/08/06 09:57:56;;;;;;;1.30;1.00;;;;;;;16.34;100.00;99539.22;5056500;28;20194;-78
2023/08/06 10:00:22;;;;;;;1.30;1.03;;;;;;;16.36;100.00;99537.41;5057551;28;20368;-78
2023/08/06 10:02:49;;;;;;;0.83;0.60;;;;;;;16.32;100.00;99538.44;5053145;28;20210;-78
2023/08/06 10:05:23;;;;;;;0.60;0.60;;;;;;;16.32;100.00;99535.84;5055610;28;20205;-77
2023/08/06 10:07:50;;;;;;;1.13;0.60;;;;;;;16.36;100.00;99547.84;5053715;28;20239;-77
2023/08/06 10:10:17;;;;;;;0.60;0.60;;;;;;;16.39;100.00;99539.00;5055212;28;20309;-76
2023/08/06 10:12:48;;;;;;;0.63;0.60;;;;;;;16.42;100.00;99558.00;5056860;28;20216;-77
2023/08/06 10:15:17;;;;;;;0.87;0.83;;;;;;;16.35;100.00;99564.44;5055021;28;20701;-77
2023/08/06 10:17:44;;;;;;;0.57;0.57;;;;;;;16.39;100.00;99566.00;5055890;28;20189;-77
2023/08/06 10:20:10;;;;;;;0.77;0.77;;;;;;;16.34;100.00;99578.41;5056034;28;20250;-77
2023/08/06 10:22:35;;;;;;;1.20;0.70;;;;;;;16.37;100.00;99577.41;5055255;28;20255;-77
2023/08/06 10:25:05;;;;;;;1.63;0.87;;;;;;;16.34;100.00;99573.16;5058132;28;20201;-77
2023/08/06 10:27:39;;;;;;;1.47;0.70;;;;;;;16.32;100.00;99582.81;5055009;28;20308;-77
2023/08/06 10:30:26;;;;;;;0.40;0.40;;;;;;;16.35;100.00;99580.09;5057698;28;20204;-77
2023/08/06 10:33:00;;;;;;;0.70;0.70;;;;;;;16.37;100.00;99577.41;5052851;28;20639;-77
2023/08/06 10:35:37;;;;;;;0.90;0.80;;;;;;;16.34;100.00;99596.66;5053374;28;20208;-77
2023/08/06 10:38:09;;;;;;;0.90;0.63;;;;;;;16.42;100.00;99596.34;5058956;28;20180;-76
2023/08/06 10:40:36;;;;;;;1.43;0.80;;;;;;;16.49;100.00;99599.50;5055635;28;20706;-77
2023/08/06 10:43:03;;;;;;;1.07;0.97;;;;;;;16.49;100.00;99602.13;5059063;28;20293;-76
2023/08/06 10:45:30;;;;;;;0.87;0.80;;;;;;;16.52;100.00;99605.44;5058685;28;20271;-77
2023/08/06 10:47:57;;;;;;;1.03;0.93;;;;;;;16.56;100.00;99603.56;5056077;28;20193;-77
2023/08/06 10:50:25;;;;;;;1.50;1.00;;;;;;;16.58;100.00;99605.19;5056264;28;20185;-77
2023/08/06 10:52:51;;;;;;;1.07;1.00;;;;;;;16.48;100.00;99614.34;5060275;28;20181;-76
2023/08/06 10:55:28;;;;;;;1.33;1.00;;;;;;;16.52;100.00;99613.28;5058245;28;20208;-77
2023/08/06 10:57:57;;;;;;;2.50;2.10;;;;;;;16.41;100.00;99607.69;5055860;28;20787;-77
2023/08/06 11:00:26;;;;;;;3.20;3.00;;;;;;;16.35;100.00;99616.66;5060389;28;20346;-78
2023/08/06 11:02:53;;;;;;;1.83;1.67;;;;;;;16.39;100.00;99615.59;5060380;28;20255;-77
2023/08/06 11:05:18;;;;;;;1.97;1.40;;;;;;;16.42;100.00;99623.28;5057597;28;20208;-77
2023/08/06 11:07:49;;;;;;;2.33;1.40;;;;;;;16.43;100.00;99627.59;5058065;28;20185;-77
2023/08/06 11:10:14;;;;;;;2.23;1.43;;;;;;;16.44;100.00;99628.44;5060539;28;20240;-76
2023/08/06 11:12:40;;;;;;;1.50;1.40;;;;;;;16.45;100.00;99624.94;5059200;28;20211;-78
2023/08/06 11:15:06;;;;;;;1.67;1.50;;;;;;;16.54;100.00;99626.28;5059045;28;20295;-76
2023/08/06 11:17:33;;;;;;;1.90;1.40;;;;;;;16.65;100.00;99631.00;5062387;28;20995;-77
2023/08/06 11:20:04;;;;;;;1.73;1.50;;;;;;;16.72;100.00;99628.06;5059002;28;20185;-76
2023/08/06 11:22:32;;;;;;;2.80;1.67;;;;;;;16.78;100.00;99634.78;5063485;28;20228;-78
2023/08/06 11:24:58;;;;;;;2.03;1.80;;;;;;;16.72;100.00;99648.97;5071917;28;20215;-77